| ตารางข้อมูล | ค้นข้อมูล1 | ค้นข้อมูล2 | ค่าสูงสุด-ต่ำสุด |  

Select Sensor -->| 20402 | 4529A | 4529C | 4529D | 89M1A | 89M1B | หน้าจอย่อ | 4529 |
ข้อมูลรวม (ยังไม่ได้เลือก Sensor)

IDDate TimeRoom  Temp  Humidity RSSI Time
 1153921  2026-09-04 01:52:15  4529C  28.5 °C  52.7 %   01:52 
 1153920  2026-09-04 01:50:03  89M1B  32.5 °C  66.1 %   01:50 
 1153919  2026-09-04 01:48:58  4529D  29.9 °C  73.0 %   01:48 
 1153918  2026-09-04 01:46:47  4529A  30.6 °C  71.3 %   01:46 
 1153917  2026-09-04 01:46:25  89M1A  30.1 °C  74.2 %   01:46 
 1153916  2026-09-04 01:43:16  20402  30.1 °C  57.7 %   01:43 
 1153915  2026-09-04 01:42:13  4529C  28.6 °C  53.4 %   01:42 
 1153914  2026-09-04 01:40:24  89M1B  32.5 °C  66.3 %   01:40 
 1153913  2026-09-04 01:39:25  4529D  29.8 °C  72.8 %   01:39 
 1153912  2026-09-04 01:36:48  89M1A  30.1 °C  74.4 %   01:36 
 1153911  2026-09-04 01:36:36  4529A  30.5 °C  71.6 %   01:36 
 1153910  2026-09-04 01:33:06  20402  30.2 °C  57.3 %   01:33 
 1153909  2026-09-04 01:32:10  4529C  28.5 °C  53.2 %   01:32 
 1153908  2026-09-04 01:30:47  89M1B  32.6 °C  66.2 %   01:30 
 1153907  2026-09-04 01:29:51  4529D  29.9 °C  72.9 %   01:29 
 1153906  2026-09-04 01:27:11  89M1A  30.4 °C  73.8 %   01:27 
 1153905  2026-09-04 01:26:26  4529A  30.4 °C  71.4 %   01:26 
 1153904  2026-09-04 01:22:56  20402  30.2 °C  57.3 %   01:22 
 1153903  2026-09-04 01:22:08  4529C  28.5 °C  53.3 %   01:22 
 1153902  2026-09-04 01:21:05  89M1B  32.6 °C  66.3 %   01:21 
 1153901  2026-09-04 01:20:18  4529D  30.0 °C  72.7 %   01:20 
 1153900  2026-09-04 01:17:32  89M1A  30.1 °C  74.8 %   01:17 
 1153899  2026-09-04 01:16:15  4529A  30.2 °C  70.8 %   01:16 
 1153898  2026-09-04 01:12:43  20402  30.2 °C  57.7 %   01:12 
 1153897  2026-09-04 01:12:05  4529C  28.3 °C  53.0 %   01:12 
 1153896  2026-09-04 01:11:27  89M1B  32.7 °C  66.0 %   01:11 
 1153895  2026-09-04 01:10:45  4529D  30.0 °C  72.6 %   01:10 
 1153894  2026-09-04 01:07:56  89M1A  30.2 °C  74.5 %   01:07 
 1153893  2026-09-04 01:06:03  4529A  29.7 °C  69.5 %   01:06 
 1153892  2026-09-04 01:02:33  20402  30.2 °C  57.6 %   01:02 
 1153891  2026-09-04 01:02:03  4529C  28.1 °C  51.9 %   01:02 
 1153890  2026-09-04 01:01:48  89M1B  32.8 °C  65.0 %   01:01 
 1153889  2026-09-04 01:01:12  4529D  30.1 °C  72.5 %   01:01 
 1153888  2026-09-04 00:58:19  89M1A  30.3 °C  73.7 %   00:58 
 1153887  2026-09-04 00:55:52  4529A  30.2 °C  71.0 %   00:55 
 1153886  2026-09-04 00:52:23  20402  30.3 °C  56.9 %   00:52 
 1153885  2026-09-04 00:52:09  89M1B  32.9 °C  64.3 %   00:52 
 1153884  2026-09-04 00:52:00  4529C  27.9 °C  50.2 %   00:52 
 1153883  2026-09-04 00:51:39  4529D  30.6 °C  72.7 %   00:51 
 1153882  2026-09-04 00:48:42  89M1A  30.2 °C  73.4 %   00:48 
 1153881  2026-09-04 00:45:40  4529A  29.7 °C  68.9 %   00:45 
 1153880  2026-09-04 00:42:31  89M1B  32.8 °C  64.5 %   00:42 
 1153879  2026-09-04 00:42:13  20402  30.3 °C  56.6 %   00:42 
 1153878  2026-09-04 00:42:07  4529D  30.2 °C  72.3 %   00:42 
 1153877  2026-09-04 00:41:58  4529C  27.8 °C  46.1 %   00:41 
 1153876  2026-09-04 00:39:04  89M1A  30.3 °C  73.5 %   00:39 
 1153875  2026-09-04 00:35:28  4529A  30.1 °C  70.7 %   00:35 
 1153874  2026-09-04 00:32:52  89M1B  32.9 °C  64.5 %   00:32 
 1153873  2026-09-04 00:32:34  4529D  30.1 °C  71.2 %   00:32 
 1153872  2026-09-04 00:32:03  20402  30.3 °C  56.8 %   00:32 
 1153871  2026-09-04 00:31:56  4529C  28.2 °C  46.8 %   00:31 
 1153870  2026-09-04 00:29:26  89M1A  30.1 °C  74.0 %   00:29 
 1153869  2026-09-04 00:25:16  4529A  29.7 °C  67.6 %   00:25 
 1153868  2026-09-04 00:23:13  89M1B  33.0 °C  64.3 %   00:23 
 1153867  2026-09-04 00:23:00  4529D  30.5 °C  72.0 %   00:23 
 1153866  2026-09-04 00:21:53  4529C  28.4 °C  49.4 %   00:21 
 1153865  2026-09-04 00:21:53  20402  30.4 °C  57.3 %   00:21 
 1153864  2026-09-04 00:19:49  89M1A  29.9 °C  74.4 %   00:19 
 1153863  2026-09-04 00:15:04  4529A  30.1 °C  70.1 %   00:15 
 1153862  2026-09-04 00:13:34  89M1B  33.0 °C  64.2 %   00:13 
 1153861  2026-09-04 00:13:28  4529D  30.2 °C  71.0 %   00:13 
 1153860  2026-09-04 00:11:51  4529C  28.5 °C  50.9 %   00:11 
 1153859  2026-09-04 00:11:42  20402  30.3 °C  57.3 %   00:11 
 1153858  2026-09-04 00:10:13  89M1A  30.2 °C  74.0 %   00:10 
 1153857  2026-09-04 00:04:53  4529A  29.5 °C  67.2 %   00:04 
 1153856  2026-09-04 00:03:56  89M1B  33.1 °C  64.2 %   00:03 
 1153855  2026-09-04 00:03:55  4529D  30.3 °C  71.7 %   00:03 
 1153854  2026-09-04 00:01:48  4529C  28.2 °C  50.5 %   00:01 
 1153853  2026-09-04 00:01:30  20402  30.3 °C  56.6 %   00:01 
 1153852  2026-09-04 00:00:35  89M1A  30.2 °C  74.2 %   00:00 
 1153851  2026-09-03 23:54:42  4529A  30.4 °C  69.1 %   23:54 
 1153850  2026-09-03 23:54:22  4529D  30.3 °C  70.7 %   23:54 
 1153849  2026-09-03 23:54:17  89M1B  33.2 °C  64.1 %   23:54 
 1153848  2026-09-03 23:51:46  4529C  28.3 °C  49.8 %   23:51 
 1153847  2026-09-03 23:51:20  20402  30.4 °C  55.6 %   23:51 
 1153846  2026-09-03 23:50:57  89M1A  30.2 °C  74.6 %   23:50 
 1153845  2026-09-03 23:44:49  4529D  30.3 °C  70.4 %   23:44 
 1153844  2026-09-03 23:44:39  89M1B  33.4 °C  64.2 %   23:44 
 1153843  2026-09-03 23:44:30  4529A  29.9 °C  67.8 %   23:44 
 1153842  2026-09-03 23:41:44  4529C  28.0 °C  49.0 %   23:41 
 1153841  2026-09-03 23:41:21  89M1A  30.6 °C  73.1 %   23:41 
 1153840  2026-09-03 23:41:10  20402  30.4 °C  54.4 %   23:41 
 1153839  2026-09-03 23:35:16  4529D  30.4 °C  70.3 %   23:35 
 1153838  2026-09-03 23:35:00  89M1B  33.3 °C  64.0 %   23:35 
 1153837  2026-09-03 23:34:18  4529A  30.4 °C  69.2 %   23:34 
 1153836  2026-09-03 23:31:44  89M1A  30.3 °C  74.0 %   23:31 
 1153835  2026-09-03 23:31:41  4529C  27.8 °C  45.7 %   23:31 
 1153834  2026-09-03 23:31:00  20402  30.4 °C  54.4 %   23:31 
 1153833  2026-09-03 23:25:43  4529D  31.3 °C  70.9 %   23:25 
 1153832  2026-09-03 23:25:22  89M1B  33.4 °C  63.8 %   23:25 
 1153831  2026-09-03 23:24:07  4529A  29.8 °C  66.1 %   23:24 
 1153830  2026-09-03 23:22:08  89M1A  30.6 °C  72.9 %   23:22 
 1153829  2026-09-03 23:21:39  4529C  27.6 °C  41.2 %   23:21 
 1153828  2026-09-03 23:20:49  20402  30.4 °C  54.4 %   23:20 
 1153827  2026-09-03 23:16:10  4529D  30.7 °C  69.5 %   23:16 
 1153826  2026-09-03 23:15:43  89M1B  33.4 °C  64.0 %   23:15 
 1153825  2026-09-03 23:13:55  4529A  30.3 °C  69.1 %   23:13 
 1153824  2026-09-03 23:12:30  89M1A  30.5 °C  73.7 %   23:12 
 1153823  2026-09-03 23:11:36  4529C  27.8 °C  41.5 %   23:11 
 1153822  2026-09-03 23:10:37  20402  30.4 °C  53.7 %   23:10 
 1153821  2026-09-03 23:06:36  4529D  30.7 °C  69.8 %   23:06 
 1153820  2026-09-03 23:06:04  89M1B  33.4 °C  64.6 %   23:06 
 1153819  2026-09-03 23:03:43  4529A  29.8 °C  63.3 %   23:03 
 1153818  2026-09-03 23:02:53  89M1A  30.6 °C  73.9 %   23:02 
 1153817  2026-09-03 23:01:34  4529C  28.1 °C  42.2 %   23:01 
 1153816  2026-09-03 23:00:24  20402  30.5 °C  52.6 %   23:00 
 1153815  2026-09-03 22:57:03  4529D  30.7 °C  69.5 %   22:57 
 1153814  2026-09-03 22:56:26  89M1B  32.9 °C  66.1 %   22:56 
 1153813  2026-09-03 22:53:31  4529A  29.9 °C  63.5 %   22:53 
 1153812  2026-09-03 22:53:15  89M1A  30.6 °C  73.5 %   22:53 
 1153811  2026-09-03 22:51:31  4529C  27.9 °C  41.2 %   22:51 
 1153810  2026-09-03 22:50:12  20402  30.5 °C  52.4 %   22:50 
 1153809  2026-09-03 22:47:30  4529D  29.9 °C  68.8 %   22:47 
 1153808  2026-09-03 22:46:47  89M1B  33.1 °C  65.6 %   22:46 
 1153807  2026-09-03 22:43:38  89M1A  30.7 °C  73.2 %   22:43 
 1153806  2026-09-03 22:43:17  4529A  30.3 °C  66.6 %   22:43 
 1153805  2026-09-03 22:41:29  4529C  27.8 °C  39.6 %   22:41 
 1153804  2026-09-03 22:40:01  20402  30.5 °C  52.3 %   22:40 
 1153803  2026-09-03 22:37:57  4529D  30.8 °C  69.5 %   22:37 
 1153802  2026-09-03 22:37:09  89M1B  33.1 °C  66.0 %   22:37 
 1153801  2026-09-03 22:34:00  89M1A  30.7 °C  72.4 %   22:34 
 1153800  2026-09-03 22:33:05  4529A  29.9 °C  66.9 %   22:33 
 1153799  2026-09-03 22:31:27  4529C  28.0 °C  40.4 %   22:31 
 1153798  2026-09-03 22:29:51  20402  30.5 °C  52.1 %   22:29 
 1153797  2026-09-03 22:28:24  4529D  30.9 °C  69.5 %   22:28 
 1153796  2026-09-03 22:27:30  89M1B  33.1 °C  65.5 %   22:27 
 1153795  2026-09-03 22:24:23  89M1A  31.1 °C  72.3 %   22:24 
 1153794  2026-09-03 22:21:24  4529C  27.8 °C  39.5 %   22:21 
 1153793  2026-09-03 22:19:41  20402  30.6 °C  51.8 %   22:19 
 1153792  2026-09-03 22:18:51  4529D  30.8 °C  69.5 %   22:18 
 1153791  2026-09-03 22:17:51  89M1B  32.9 °C  65.9 %   22:17 
 1153790  2026-09-03 22:14:45  89M1A  30.9 °C  72.3 %   22:14 
 1153789  2026-09-03 22:12:38  4529A  30.4 °C  68.5 %   22:12 
 1153788  2026-09-03 22:11:22  4529C  28.4 °C  41.0 %   22:11 
 1153787  2026-09-03 22:09:30  20402  30.6 °C  51.9 %   22:09 
 1153786  2026-09-03 22:09:19  4529D  30.9 °C  69.8 %   22:09 
 1153785  2026-09-03 22:08:12  89M1B  33.4 °C  65.4 %   22:08 
 1153784  2026-09-03 22:05:07  89M1A  31.5 °C  70.6 %   22:05 
 1153783  2026-09-03 22:02:26  4529A  29.8 °C  65.2 %   22:02 
 1153782  2026-09-03 22:01:19  4529C  28.2 °C  39.1 %   22:01 
 1153781  2026-09-03 21:59:46  4529D  30.9 °C  69.8 %   21:59 
 1153780  2026-09-03 21:59:17  20402  30.6 °C  51.6 %   21:59 
 1153779  2026-09-03 21:58:34  89M1B  33.5 °C  64.3 %   21:58 
 1153778  2026-09-03 21:55:29  89M1A  31.1 °C  71.3 %   21:55 

Data every 20 minute.